Latest Coastal Weather Observations for Darwin Airport

IDD60701

Issued at 1:11 pm CST Thursday 1 September 2016 (issued every 10 minutes, with the page automatically refreshed every 10 minutes)

About coastal observations | Map of coastal stations | Coastal observations for NT | Marine services | Other Formats
Station Details ID: 014015 Name: DARWIN AIRPORT Lat: -12.42 Lon: 130.89 Height: 30.4 m
Data from the previous 72 hours. | See also: Recent months at Darwin Airport
Date/Time
CST
Temp
°C
Wind Pressure Rain since
9am
mm
Weather Cloud Vis
km
Sea
Height
m
Swell
Dir  Spd
kts
Gust
kts
hPa Trend Height
m
Period
s
Dir
01/01:00pm 30.4 NNW 11 16 1011.8 - 0.0 - Partly cloudy 10 - - - -
01/12:30pm 30.6 NW 10 14 1012.3 - 0.0 - Partly cloudy 10 - - - -
01/12:00pm 28.8 NNW 9 13 1012.7 R 0.0 Haze Partly cloudy 25 - - - -
01/11:30am 28.7 N 9 11 1013.3 - 0.0 - Partly cloudy 10 - - - -
01/11:00am 28.7 NNW 8 12 1013.8 - 0.0 - Mostly cloudy 10 - - - -
01/10:30am 28.4 WNW 5 7 1014.0 - 0.0 - Partly cloudy 10 - - - -
01/10:00am 28.8 W 7 8 1013.9 - 0.0 - Mostly clear 10 - - - -
01/09:30am 28.7 NNE 5 7 1013.9 - 0.0 - Mostly clear 10 - - - -
01/09:00am 28.2 NE 5 8 1013.7 F 0.0 Distant precip. Partly cloudy 25 - - - -
01/08:51am 27.9 ENE 5 7 1013.8 - 0.0 - Partly cloudy 10 - - - -
01/08:30am 27.3 E 4 6 1013.6 - 0.0 - Mostly clear 10 - - - -
01/08:00am 25.6 E 5 6 1013.6 - 0.0 - Mostly clear 10 - - - -
01/07:30am 24.8 ENE 4 5 1013.3 - 0.0 - Partly cloudy 10 - - - -
01/07:00am 24.6 CALM 0 0 1012.8 - 0.0 - Mostly clear 10 - - - -
01/06:30am 25.2 SE 4 5 1012.7 - 0.0 - Mostly clear 10 - - - -
01/06:00am 24.9 ENE 5 7 1012.5 F 0.0 Distant precip. Mostly cloudy 25 - - - -
01/05:30am 25.2 SE 5 5 1012.3 - 0.0 - Mostly clear 10 - - - -
01/05:00am 24.0 ESE 5 6 1012.1 - 0.0 - Partly cloudy 10 - - - -
01/04:30am 24.0 E 3 4 1012.0 - 0.0 - - 10 - - - -
01/04:00am 24.1 E 4 4 1012.0 - 0.0 - - 10 - - - -
01/03:30am 24.5 SE 4 4 1011.9 - 0.0 - - 10 - - - -
01/03:00am 25.0 SSE 3 3 1012.2 F 0.0 - - 10 - - - -
01/02:30am 25.6 S 4 5 1012.4 - 0.0 - - 10 - - - -
01/02:00am 26.0 SW 4 5 1012.5 - 0.0 - Mostly clear 10 - - - -
01/01:30am 26.2 WSW 4 5 1012.7 - 0.0 - Partly cloudy 10 - - - -
01/01:00am 26.3 W 5 6 1013.0 - 0.0 - Mostly clear 10 - - - -
01/12:30am 26.5 W 7 9 1013.2 - 0.0 - Mostly clear 10 - - - -
01/12:00am 26.6 W 7 9 1013.4 S 0.0 Fine Mostly clear 30 - - - -
 
Date/Time
CST
Temp
°C
Wind Pressure Rain since
9am
mm
Weather Cloud Vis
km
Sea
Height
m
Swell
Dir  Spd
kts
Gust
kts
hPa Trend Height
m
Period
s
Dir
31/11:30pm 26.5 W 7 9 1013.5 - 0.0 - Mostly clear 10 - - - -
31/11:00pm 26.8 W 6 8 1013.4 - 0.0 - Mostly clear 10 - - - -
31/10:30pm 27.3 W 7 9 1013.5 - 0.0 - Mostly clear 10 - - - -
31/10:00pm 27.6 WSW 7 9 1013.3 - 0.0 - - 10 - - - -
31/09:30pm 27.7 W 6 9 1013.1 - 0.0 - - 10 - - - -
31/09:00pm 27.1 ENE 4 5 1012.6 F 0.0 Fine Clear 30 - - - -
31/08:30pm 27.6 N 4 5 1012.5 - 0.0 - - 10 - - - -
31/08:00pm 28.1 N 5 6 1012.2 - 0.0 - - 10 - - - -
31/07:30pm 28.3 NNE 7 10 1011.8 - 0.0 - - 10 - - - -
31/07:00pm 28.6 N 10 13 1011.6 - 0.0 - - 10 - - - -
31/06:30pm 29.1 N 12 16 1011.1 - 0.0 - - 10 - - - -
31/06:00pm 29.9 N 13 17 1010.9 F 0.0 Smoke Clear 25 - - - -
31/05:30pm 30.2 NNE 14 17 1010.7 - 0.0 - - 10 - - - -
31/05:00pm 31.0 NNE 12 16 1010.8 - 0.0 - - 10 - - - -
31/04:30pm 31.4 NNE 12 16 1010.8 - 0.0 - - 10 - - - -
31/04:00pm 31.2 NNE 14 19 1010.9 - 0.0 - - 10 - - - -
31/03:30pm 31.7 N 15 19 1011.0 - 0.0 - - 10 - - - -
31/03:00pm 32.5 NNW 16 20 1011.1 F 0.0 Fine Mostly clear 30 - - - -
31/02:30pm 32.8 N 16 21 1011.5 - 0.0 - - 10 - - - -
31/02:00pm 33.3 N 15 23 1012.1 - 0.0 - Partly cloudy 10 - - - -
31/01:30pm 33.9 NE 9 14 1012.6 - 0.0 - Partly cloudy 10 - - - -
31/01:00pm 32.7 NE 12 20 1013.4 - 0.0 - Partly cloudy 10 - - - -
31/12:30pm 32.7 NE 10 17 1013.9 - 0.0 - Partly cloudy 10 - - - -
31/12:00pm 31.9 NE 12 17 1014.5 F 0.0 Smoke Partly cloudy 20 - - - -
31/11:30am 32.0 NE 11 16 1014.9 - 0.0 - Mostly clear 10 - - - -
31/11:00am 31.6 ENE 13 16 1015.2 - 0.0 - Mostly clear 10 - - - -
31/10:30am 30.6 NE 14 18 1015.6 - 0.0 - Mostly clear 10 - - - -
31/10:00am 29.7 ENE 10 14 1016.0 - 0.0 - Mostly clear 10 - - - -
31/09:30am 28.5 NE 11 16 1016.1 - 0.0 - Mostly clear 10 - - - -
31/09:00am 27.5 E 11 15 1016.1 F 0.0 Fine Partly cloudy 30 - - - -
31/08:30am 27.2 E 9 12 1016.0 - 0.0 - Mostly clear 10 - - - -
31/08:00am 26.5 E 9 10 1015.7 - 0.0 - Mostly clear 10 - - - -
31/07:30am 25.7 ESE 6 7 1015.5 - 0.0 - Mostly clear 10 - - - -
31/07:00am 25.3 ESE 6 7 1015.2 - 0.0 - Mostly clear 10 - - - -
31/06:30am 25.1 ESE 6 7 1014.8 - 0.0 - Mostly clear 10 - - - -
31/06:00am 25.1 ENE 5 7 1014.6 R 0.0 Fine Mostly cloudy 30 - - - -
31/05:30am 25.2 ENE 6 7 1014.4 - 0.0 - Partly cloudy 10 - - - -
31/05:00am 24.7 E 4 5 1014.2 - 0.0 - Partly cloudy 10 - - - -
31/04:30am 24.8 E 5 6 1013.9 - 0.0 - Partly cloudy 10 - - - -
31/04:00am 24.6 E 4 5 1013.9 - 0.0 - Partly cloudy 10 - - - -
31/03:30am 24.1 NE 5 6 1014.0 - 0.0 - Partly cloudy 10 - - - -
31/03:00am 23.9 NE 4 5 1013.9 F 0.0 - Mostly clear 10 - - - -
31/02:30am 24.4 N 5 6 1014.1 - 0.0 - Partly cloudy 10 - - - -
31/02:00am 24.4 N 4 5 1014.0 - 0.0 - Mostly clear 10 - - - -
31/01:30am 25.0 N 3 5 1014.1 - 0.0 - Mostly clear 10 - - - -
31/01:00am 24.8 NNW 5 5 1014.3 - 0.0 - Mostly clear 10 - - - -
31/12:30am 25.4 W 3 4 1014.4 - 0.0 - Mostly clear 10 - - - -
31/12:00am 25.9 W 1 5 1014.6 R 0.0 Smoke Partly cloudy 25 - - - -
 
Date/Time
CST
Temp
°C
Wind Pressure Rain since
9am
mm
Weather Cloud Vis
km
Sea
Height
m
Swell
Dir  Spd
kts
Gust
kts
hPa Trend Height
m
Period
s
Dir
30/11:30pm 26.1 N 4 5 1014.6 - 0.0 - Mostly clear 10 - - - -
30/11:00pm 26.0 N 5 7 1014.2 - 0.0 - - 10 - - - -
30/10:30pm 26.0 NNE 7 8 1013.9 - 0.0 - - 10 - - - -
30/10:00pm 26.6 NNE 6 8 1013.9 - 0.0 - - 10 - - - -
30/09:30pm 26.6 NNE 6 8 1013.7 - 0.0 - - 10 - - - -
30/09:00pm 27.0 N 4 5 1013.4 R 0.0 Smoke Clear 20 - - - -
30/08:30pm 27.3 NNE 6 7 1013.1 - 0.0 - - 10 - - - -
30/08:00pm 27.6 NNE 7 8 1012.6 - 0.0 - - 10 - - - -
30/07:30pm 28.1 NNE 7 9 1012.4 - 0.0 - - 10 - - - -
30/07:00pm 28.6 NNE 9 14 1012.0 - 0.0 - - 10 - - - -
30/06:30pm 29.3 NNE 12 17 1011.6 - 0.0 - - 10 - - - -
30/06:00pm 30.0 NNE 12 16 1011.5 R 0.0 Smoke Clear 25 - - - -
30/05:30pm 31.2 NNE 15 18 1011.3 - 0.0 - - 10 - - - -
30/05:00pm 31.5 NNE 13 17 1011.1 - 0.0 - - 10 - - - -
30/04:30pm 32.0 N 14 18 1010.9 - 0.0 - - 10 - - - -
30/04:00pm 32.2 NNE 14 18 1010.9 - 0.0 - - 10 - - - -
30/03:30pm 32.7 NNE 15 20 1011.0 - 0.0 - - 10 - - - -
30/03:00pm 32.9 NNE 16 20 1011.3 F 0.0 Fine Partly cloudy 30 - - - -
30/02:30pm 32.8 NNE 14 19 1011.7 - 0.0 - Partly cloudy 10 - - - -
30/02:00pm 33.4 NNE 13 18 1012.1 - 0.0 - Mostly clear 10 - - - -
30/01:30pm 32.0 NNE 12 16 1012.6 - 0.0 - Partly cloudy 10 - - - -
30/01:00pm 31.3 NNE 12 17 1013.5 - 0.0 - Partly cloudy 10 - - - -
30/12:30pm 31.8 NNE 8 16 1014.0 - 0.0 - Partly cloudy 10 - - - -
30/12:00pm 30.4 NE 9 15 1014.7 F 0.0 Fine Partly cloudy 30 - - - -
30/11:30am 30.8 NNE 9 13 1015.3 - 0.0 - Partly cloudy 10 - - - -
30/11:00am 30.3 NE 9 14 1015.9 - 0.0 - Partly cloudy 10 - - - -
30/10:30am 29.1 NE 8 11 1016.4 - 0.0 - Partly cloudy 10 - - - -
30/10:00am 28.7 NE 8 14 1016.5 - 0.0 - Partly cloudy 10 - - - -
30/09:30am 27.6 ENE 9 13 1016.4 - 0.0 - Partly cloudy 10 - - - -
30/09:00am 27.7 ENE 11 15 1016.2 R 0.0 Fine Partly cloudy 30 - - - -
30/08:30am 27.1 ENE 8 10 1015.9 - 0.0 - Mostly clear 10 - - - -
30/08:00am 25.7 E 7 8 1015.7 - 0.0 - Mostly clear 10 - - - -
30/07:30am 24.5 E 5 7 1015.4 - 0.0 - Mostly clear 10 - - - -
30/07:00am 23.2 E 6 7 1015.0 - 0.0 - Mostly clear 10 - - - -
30/06:30am 23.3 E 3 4 1014.6 - 0.0 - Mostly clear 10 - - - -
30/06:00am 23.8 E 5 6 1014.3 R 0.0 Fine Mostly clear 30 - - - -
30/05:30am 24.0 CALM 0 0 1014.0 - 0.0 - Partly cloudy 10 - - - -
30/05:00am 23.4 CALM 0 0 1013.7 - 0.0 - Partly cloudy 10 - - - -
30/04:30am 23.6 CALM 0 0 1013.5 - 0.0 - Partly cloudy 10 - - - -
30/04:00am 23.8 NE 3 5 1013.4 - 0.0 - Partly cloudy 10 - - - -
30/03:30am 23.2 NNE 3 4 1013.5 - 0.0 - Partly cloudy 10 - - - -
30/03:00am 23.6 CALM 0 2 1013.6 R 0.0 - Mostly clear 10 - - - -
30/02:30am 23.7 NNW 4 5 1013.8 - 0.0 - Partly cloudy 10 - - - -
30/02:00am 24.2 NNW 5 6 1014.1 - 0.0 - Mostly clear 10 - - - -
30/01:30am 24.7 NNW 5 6 1014.0 - 0.0 - Mostly clear 10 - - - -
30/01:00am 25.3 WNW 6 7 1013.9 - 0.0 - Mostly clear 10 - - - -
30/12:30am 25.7 NW 4 6 1014.0 - 0.0 - - 10 - - - -
30/12:00am 26.1 N 7 11 1014.0 R 0.0 Fine Clear 30 - - - -
 
Date/Time
CST
Temp
°C
Wind Pressure Rain since
9am
mm
Weather Cloud Vis
km
Sea
Height
m
Swell
Dir  Spd
kts
Gust
kts
hPa Trend Height
m
Period
s
Dir
29/11:30pm 26.2 N 8 10 1013.9 - 0.0 - - 10 - - - -
29/11:00pm 26.5 N 10 14 1013.6 - 0.0 - - 10 - - - -
29/10:30pm 26.5 N 9 13 1013.2 - 0.0 - - 10 - - - -
29/10:00pm 26.2 NNE 7 10 1013.0 - 0.0 - - 10 - - - -
29/09:30pm 26.3 NNE 7 9 1012.8 - 0.0 - - 10 - - - -
29/09:00pm 26.3 NNE 8 10 1012.5 S 0.0 Smoke Clear 12 - - - -
29/08:30pm 26.4 NNE 9 11 1012.2 - 0.0 - - 10 - - - -
29/08:00pm 26.7 NNE 8 11 1012.0 - 0.0 - - 10 - - - -
29/07:30pm 27.2 NNE 9 11 1011.5 - 0.0 - - 10 - - - -
29/07:00pm 27.6 NNE 10 13 1011.3 - 0.0 - - 10 - - - -
29/06:30pm 28.4 NNE 13 17 1011.0 - 0.0 - - 10 - - - -
29/06:00pm 29.5 NNE 13 18 1010.7 R 0.0 Smoke Clear 25 - - - -
29/05:30pm 30.4 NNE 14 20 1010.4 - 0.0 - - 10 - - - -
29/05:00pm 30.4 NNE 16 20 1010.4 - 0.0 - - 10 - - - -
29/04:30pm 31.1 NNE 15 19 1010.2 - 0.0 - - 10 - - - -
29/04:00pm 30.7 NNE 16 19 1010.2 - 0.0 - - 10 - - - -
29/03:30pm 31.7 NNE 15 20 1010.2 - 0.0 - - 10 - - - -
29/03:00pm 30.9 NNE 15 19 1010.5 F 0.0 Smoke Mostly clear 25 - - - -
29/02:30pm 31.8 N 15 18 1011.1 - 0.0 - - 10 - - - -
29/02:00pm 31.5 N 14 19 1011.6 - 0.0 - - 10 - - - -
29/01:30pm 31.0 NNE 14 19 1012.1 - 0.0 - - 10 - - - -

Other Formats:

Comma delimited format used in spreadsheet applications
http://www.bom.gov.au/fwo/IDD60701/IDD60701.94120.axf

JavaScript Object Notation format (JSON) in row-major order
http://www.bom.gov.au/fwo/IDD60701/IDD60701.94120.json